Time;durP1;ratioP1;P1;durP2;ratioP2;P2;SDS_P1;SDS_P2;PMS_P1;PMS_P2;Temp;Humidity;BMP_temperature;BMP_pressure;BME280_temperature;BME280_humidity;BME280_pressure;Samples;Min_cycle;Max_cycle;Signal;HPM_P1;HPM_P2
2024/01/28 00:00:02;;;;;;;10.23;6.90;;;5.30;99.90;;;;;;5038282;28;20575;-78
2024/01/28 00:02:30;;;;;;;8.27;6.60;;;5.30;99.90;;;;;;5039440;28;21060;-79
2024/01/28 00:04:58;;;;;;;7.20;6.50;;;5.20;99.90;;;;;;5042912;28;20456;-76
2024/01/28 00:07:27;;;;;;;7.33;6.63;;;5.20;99.90;;;;;;5036336;28;20549;-78
2024/01/28 00:09:55;;;;;;;6.80;5.80;;;5.20;99.90;;;;;;5031360;28;20455;-79
2024/01/28 00:12:24;;;;;;;7.33;6.40;;;5.10;99.90;;;;;;5036755;28;20553;-81
2024/01/28 00:14:53;;;;;;;10.50;6.73;;;5.10;99.90;;;;;;5047990;28;20896;-78
2024/01/28 00:17:21;;;;;;;6.27;5.07;;;5.00;99.90;;;;;;5032552;28;20545;-80
2024/01/28 00:19:49;;;;;;;8.47;5.23;;;5.00;99.90;;;;;;5034092;28;20464;-80
2024/01/28 00:22:18;;;;;;;7.77;6.40;;;5.00;99.90;;;;;;5041775;28;20457;-81
2024/01/28 00:24:46;;;;;;;9.50;6.03;;;5.00;99.90;;;;;;5035168;28;20448;-79
2024/01/28 00:27:14;;;;;;;9.83;5.40;;;5.10;99.90;;;;;;5037419;28;20495;-81
2024/01/28 00:29:44;;;;;;;8.88;5.60;;;5.20;99.90;;;;;;5037607;28;20447;-82
2024/01/28 00:32:12;;;;;;;6.40;5.87;;;5.10;99.90;;;;;;5044374;28;20201;-83
2024/01/28 00:34:40;;;;;;;6.33;5.33;;;5.20;99.90;;;;;;5045521;28;20448;-80
2024/01/28 00:37:10;;;;;;;7.00;4.50;;;5.20;99.90;;;;;;5043912;28;20479;-79
2024/01/28 00:39:38;;;;;;;5.93;5.33;;;5.20;99.90;;;;;;5045485;28;20477;-80
2024/01/28 00:42:06;;;;;;;8.47;6.13;;;5.20;99.90;;;;;;5044461;28;20490;-80
2024/01/28 00:44:35;;;;;;;8.53;5.47;;;5.20;99.90;;;;;;5043599;28;20448;-81
2024/01/28 00:47:04;;;;;;;6.00;5.43;;;5.30;99.90;;;;;;5037078;28;20487;-78
2024/01/28 00:49:33;;;;;;;6.33;5.50;;;5.30;99.90;;;;;;5034536;28;20455;-80
2024/01/28 00:52:02;;;;;;;5.77;5.23;;;5.40;99.90;;;;;;5032823;28;21023;-80
2024/01/28 00:54:30;;;;;;;6.20;5.60;;;5.30;99.90;;;;;;5036633;28;21274;-79
2024/01/28 00:56:58;;;;;;;7.27;5.67;;;5.30;99.90;;;;;;5036241;28;20448;-78
2024/01/28 00:59:27;;;;;;;6.30;5.60;;;5.40;99.90;;;;;;5035000;28;20535;-80
2024/01/28 01:01:55;;;;;;;5.10;4.60;;;5.30;99.90;;;;;;5036295;28;20479;-79
2024/01/28 01:04:25;;;;;;;7.43;5.33;;;5.30;99.90;;;;;;5037725;28;20444;-81
2024/01/28 01:06:53;;;;;;;5.53;4.90;;;5.30;99.90;;;;;;5036214;28;20479;-77
2024/01/28 01:09:21;;;;;;;5.23;4.73;;;5.40;99.90;;;;;;5038997;28;20457;-77
2024/01/28 01:11:49;;;;;;;5.57;5.07;;;5.40;99.90;;;;;;5039149;28;20486;-81
2024/01/28 01:14:17;;;;;;;4.83;4.53;;;5.40;99.90;;;;;;5045752;28;20464;-80
2024/01/28 01:16:45;;;;;;;8.73;5.93;;;5.50;99.90;;;;;;5043247;28;20484;-81
2024/01/28 01:19:14;;;;;;;8.87;5.60;;;5.50;99.90;;;;;;5042747;28;20477;-79
2024/01/28 01:21:43;;;;;;;9.90;6.23;;;5.40;99.90;;;;;;5043502;28;20456;-79
2024/01/28 01:24:12;;;;;;;6.63;6.07;;;5.40;99.90;;;;;;5043747;28;20698;-80
2024/01/28 01:26:40;;;;;;;6.33;5.47;;;5.40;99.90;;;;;;5046768;28;20881;-78
2024/01/28 01:29:08;;;;;;;5.67;5.17;;;5.40;99.90;;;;;;5039629;28;20456;-81
2024/01/28 01:31:36;;;;;;;4.77;4.47;;;5.50;99.90;;;;;;5040763;28;21005;-83
2024/01/28 01:34:05;;;;;;;6.03;5.37;;;5.50;99.90;;;;;;5039403;28;20447;-77
2024/01/28 01:36:33;;;;;;;5.03;4.60;;;5.50;99.90;;;;;;5042211;28;20873;-79
2024/01/28 01:39:02;;;;;;;9.57;5.60;;;5.40;99.90;;;;;;5038334;28;20483;-80
2024/01/28 01:41:31;;;;;;;6.40;5.17;;;5.50;99.90;;;;;;5037307;28;20831;-80
2024/01/28 01:44:00;;;;;;;5.70;5.20;;;5.50;99.90;;;;;;5039339;28;20451;-80
2024/01/28 01:46:30;;;;;;;4.93;4.43;;;5.50;99.90;;;;;;5036042;28;20456;-83
2024/01/28 01:48:59;;;;;;;5.23;4.77;;;5.30;99.90;;;;;;5038739;28;20466;-79
2024/01/28 01:51:28;;;;;;;5.97;5.07;;;5.20;99.90;;;;;;5037632;28;20467;-80
2024/01/28 01:53:56;;;;;;;5.93;4.50;;;5.30;99.90;;;;;;5038658;28;21439;-83
2024/01/28 01:56:28;;;;;;;10.60;4.93;;;5.30;99.90;;;;;;5040243;28;20463;-81
2024/01/28 01:58:57;;;;;;;6.17;5.47;;;5.30;99.90;;;;;;5037078;28;20440;-80
2024/01/28 02:01:27;;;;;;;5.57;4.77;;;5.30;99.90;;;;;;5035475;28;20509;-78
2024/01/28 02:03:57;;;;;;;5.40;5.00;;;5.20;99.90;;;;;;5031636;28;21319;-78
2024/01/28 02:06:26;;;;;;;7.90;5.87;;;5.20;99.90;;;;;;5033570;28;20475;-82
2024/01/28 02:08:55;;;;;;;6.60;5.50;;;5.20;99.90;;;;;;5027805;28;20468;-78
2024/01/28 02:11:23;;;;;;;20.73;9.77;;;5.00;99.90;;;;;;5036786;28;20571;-79
2024/01/28 02:13:53;;;;;;;27.93;12.40;;;5.00;99.90;;;;;;5034434;28;20463;-81
2024/01/28 02:16:24;;;;;;;10.30;7.50;;;5.00;99.90;;;;;;5034256;28;20463;-82
2024/01/28 02:18:52;;;;;;;7.80;5.27;;;5.10;99.90;;;;;;5034217;28;20460;-77
2024/01/28 02:21:21;;;;;;;4.97;4.40;;;5.10;99.90;;;;;;5036963;28;20530;-79
2024/01/28 02:23:50;;;;;;;6.40;5.03;;;5.20;99.90;;;;;;5038293;28;20461;-79
2024/01/28 02:26:18;;;;;;;4.47;4.10;;;5.10;99.90;;;;;;5037763;28;20452;-77
2024/01/28 02:28:47;;;;;;;5.50;4.97;;;5.20;99.90;;;;;;5034850;28;20480;-82
2024/01/28 02:31:15;;;;;;;8.40;5.57;;;5.20;99.90;;;;;;5039812;28;20480;-78
2024/01/28 02:33:44;;;;;;;5.77;5.20;;;5.10;99.90;;;;;;5039378;28;20518;-79
2024/01/28 02:36:13;;;;;;;5.23;4.83;;;5.20;99.90;;;;;;5042346;28;20455;-81
2024/01/28 02:38:41;;;;;;;4.77;4.40;;;5.20;99.90;;;;;;5042188;28;20449;-77
2024/01/28 02:41:10;;;;;;;5.20;4.80;;;5.20;99.90;;;;;;5040331;28;20966;-76
2024/01/28 02:43:39;;;;;;;4.70;4.07;;;5.20;99.90;;;;;;5038683;28;20458;-80
2024/01/28 02:46:07;;;;;;;6.70;4.33;;;5.20;99.90;;;;;;5040144;28;20464;-77
2024/01/28 02:48:35;;;;;;;5.90;3.90;;;5.30;99.90;;;;;;5038343;28;20475;-77
2024/01/28 02:51:03;;;;;;;4.07;3.67;;;5.30;99.90;;;;;;5038340;28;20487;-79
2024/01/28 02:53:32;;;;;;;6.77;4.13;;;5.30;99.90;;;;;;5041334;28;21226;-78
2024/01/28 02:56:00;;;;;;;5.30;4.47;;;5.40;99.90;;;;;;5035596;28;20572;-78
2024/01/28 02:58:31;;;;;;;5.07;4.47;;;5.50;99.90;;;;;;5035481;28;20511;-79
2024/01/28 03:01:00;;;;;;;4.53;3.77;;;5.40;99.90;;;;;;5037538;28;20464;-79
2024/01/28 03:03:28;;;;;;;7.07;3.70;;;5.30;99.90;;;;;;5039525;28;20514;-82
2024/01/28 03:05:56;;;;;;;4.00;3.70;;;5.30;99.90;;;;;;5038788;28;20468;-78
2024/01/28 03:08:25;;;;;;;4.50;3.80;;;5.20;99.90;;;;;;5037082;28;22395;-79
2024/01/28 03:10:53;;;;;;;6.37;4.83;;;5.20;99.90;;;;;;5037532;28;20479;-79
2024/01/28 03:13:21;;;;;;;5.93;5.43;;;5.10;99.90;;;;;;5038465;28;20454;-80
2024/01/28 03:15:52;;;;;;;4.27;3.97;;;5.10;99.90;;;;;;5040889;28;21080;-81
2024/01/28 03:18:21;;;;;;;4.17;3.90;;;5.20;99.90;;;;;;5042336;28;20857;-78
2024/01/28 03:20:49;;;;;;;3.57;3.37;;;5.30;99.90;;;;;;5039817;28;20480;-82
2024/01/28 03:23:19;;;;;;;6.17;3.60;;;5.20;99.90;;;;;;5044203;28;20447;-83
2024/01/28 03:25:48;;;;;;;3.97;3.67;;;5.10;99.90;;;;;;5041447;28;20455;-80
2024/01/28 03:28:17;;;;;;;5.80;4.20;;;5.10;99.90;;;;;;5039503;28;20460;-79
2024/01/28 03:30:45;;;;;;;4.00;3.60;;;4.90;99.90;;;;;;5038871;28;21396;-77
2024/01/28 03:33:15;;;;;;;4.67;4.20;;;4.90;99.90;;;;;;5036260;28;20452;-82
2024/01/28 03:35:43;;;;;;;5.80;4.57;;;4.80;99.90;;;;;;5042077;28;20968;-80
2024/01/28 03:38:11;;;;;;;6.93;4.10;;;4.80;99.90;;;;;;5037509;28;20444;-77
2024/01/28 03:40:39;;;;;;;5.40;4.20;;;4.70;99.90;;;;;;5036996;28;20467;-78
2024/01/28 03:43:08;;;;;;;4.73;4.30;;;4.50;99.90;;;;;;5039630;28;20896;-79
2024/01/28 03:45:36;;;;;;;6.60;4.97;;;4.50;99.90;;;;;;5037941;28;20574;-80
2024/01/28 03:48:05;;;;;;;5.50;4.70;;;4.50;99.90;;;;;;5031075;28;20863;-78
2024/01/28 03:50:34;;;;;;;5.33;4.73;;;4.40;99.90;;;;;;5038851;28;20482;-83
2024/01/28 03:53:03;;;;;;;4.57;4.17;;;4.40;99.90;;;;;;5038898;28;20455;-78
2024/01/28 03:55:31;;;;;;;7.37;5.50;;;4.30;99.90;;;;;;5040909;28;20478;-78
2024/01/28 03:57:59;;;;;;;5.60;5.00;;;4.30;99.90;;;;;;5041628;28;20450;-83
2024/01/28 04:00:29;;;;;;;5.10;4.70;;;4.30;99.90;;;;;;5038863;28;20483;-78
2024/01/28 04:02:58;;;;;;;6.10;4.80;;;4.30;99.90;;;;;;5037028;28;20452;-83
2024/01/28 04:05:26;;;;;;;6.75;4.55;;;4.20;99.90;;;;;;5041082;28;20202;-79
2024/01/28 04:07:55;;;;;;;8.32;6.60;;;4.10;99.90;;;;;;5042478;28;20269;-80
2024/01/28 04:10:24;;;;;;;6.10;5.10;;;4.10;99.90;;;;;;5042084;28;20224;-81
2024/01/28 04:12:52;;;;;;;4.77;4.37;;;4.20;99.90;;;;;;5042580;28;20436;-77
2024/01/28 04:15:21;;;;;;;5.60;4.60;;;4.10;99.90;;;;;;5039726;28;20517;-79
2024/01/28 04:17:49;;;;;;;5.80;4.30;;;4.10;99.90;;;;;;5038874;28;20474;-82
2024/01/28 04:20:18;;;;;;;6.35;4.60;;;4.10;99.90;;;;;;5055526;28;20245;-80
2024/01/28 04:22:46;;;;;;;7.43;4.57;;;4.10;99.90;;;;;;5042693;28;20208;-80
2024/01/28 04:25:18;;;;;;;5.10;4.17;;;4.10;99.90;;;;;;5043373;28;20208;-80
2024/01/28 04:27:46;;;;;;;7.45;3.97;;;4.00;99.90;;;;;;5040913;28;20806;-79
2024/01/28 04:30:15;;;;;;;6.03;5.22;;;4.00;99.90;;;;;;5039417;28;20237;-81
2024/01/28 04:32:43;;;;;;;4.30;3.90;;;4.00;99.90;;;;;;5043163;28;20262;-77
2024/01/28 04:35:12;;;;;;;5.20;4.82;;;4.00;99.90;;;;;;5043686;28;20194;-78
2024/01/28 04:37:41;;;;;;;6.37;5.00;;;4.00;99.90;;;;;;5044304;28;20202;-79
2024/01/28 04:40:10;;;;;;;4.95;4.05;;;4.00;99.90;;;;;;5042893;28;20473;-77
2024/01/28 04:42:39;;;;;;;4.23;3.67;;;4.00;99.90;;;;;;5042802;28;20702;-79
2024/01/28 04:45:11;;;;;;;4.87;3.80;;;4.00;99.90;;;;;;5037959;28;20443;-78
2024/01/28 04:47:39;;;;;;;7.87;3.80;;;3.90;99.90;;;;;;5036293;28;20468;-77
2024/01/28 04:50:09;;;;;;;6.28;3.50;;;3.90;99.90;;;;;;5035318;28;20610;-81
2024/01/28 04:52:37;;;;;;;3.78;3.38;;;3.90;99.90;;;;;;5037513;28;20201;-81
2024/01/28 04:55:06;;;;;;;4.40;4.00;;;4.00;99.90;;;;;;5037756;28;20201;-77
2024/01/28 04:57:35;;;;;;;5.63;4.30;;;4.00;99.90;;;;;;5035270;28;20448;-79
2024/01/28 05:00:10;;;;;;;3.60;3.30;;;3.90;99.90;;;;;;5032225;28;20198;-78
2024/01/28 05:02:38;;;;;;;4.40;4.03;;;3.80;99.90;;;;;;5035391;28;20198;-78
2024/01/28 05:05:07;;;;;;;4.20;3.90;;;3.90;99.90;;;;;;5042715;28;20456;-77
2024/01/28 05:07:35;;;;;;;4.00;3.60;;;3.90;99.90;;;;;;5039404;28;20455;-78
2024/01/28 05:10:04;;;;;;;4.37;3.63;;;3.90;99.90;;;;;;5037003;28;20484;-80
2024/01/28 05:12:32;;;;;;;5.43;3.33;;;3.90;99.90;;;;;;5036805;28;20452;-78
2024/01/28 05:15:01;;;;;;;4.15;3.75;;;3.90;99.90;;;;;;5041991;28;20462;-83
2024/01/28 05:17:31;;;;;;;3.70;3.33;;;3.90;99.90;;;;;;5037401;28;20202;-78
2024/01/28 05:19:59;;;;;;;3.30;3.00;;;3.90;99.90;;;;;;5031938;28;20470;-80
2024/01/28 05:22:27;;;;;;;4.68;4.38;;;3.90;99.90;;;;;;5037770;28;20548;-77
2024/01/28 05:24:55;;;;;;;3.57;3.27;;;3.90;99.90;;;;;;5035631;28;20212;-80
2024/01/28 05:27:24;;;;;;;3.73;3.37;;;4.10;99.90;;;;;;5036934;28;20464;-77
2024/01/28 05:29:54;;;;;;;5.20;3.38;;;4.20;99.90;;;;;;5040321;28;21008;-79
2024/01/28 05:32:22;;;;;;;3.55;3.35;;;4.40;99.90;;;;;;5037059;28;20285;-80
2024/01/28 05:34:52;;;;;;;3.33;3.03;;;4.50;1.00;;;;;;5035335;28;20987;-81
2024/01/28 05:37:19;;;;;;;4.13;3.83;;;4.50;99.90;;;;;;5032407;28;20459;-78
2024/01/28 05:39:48;;;;;;;3.40;2.70;;;4.50;99.90;;;;;;5036541;28;20456;-82
2024/01/28 05:42:16;;;;;;;3.43;3.13;;;4.60;1.00;;;;;;5034591;28;20590;-76
2024/01/28 05:44:44;;;;;;;3.50;3.30;;;4.60;99.90;;;;;;5032878;28;20466;-75
2024/01/28 05:47:12;;;;;;;3.87;2.83;;;4.60;99.90;;;;;;5036941;28;20463;-80
2024/01/28 05:49:41;;;;;;;2.90;2.70;;;4.60;99.90;;;;;;5031883;28;20510;-79
2024/01/28 05:52:10;;;;;;;3.43;3.03;;;4.60;99.90;;;;;;5028490;28;20472;-78
2024/01/28 05:54:41;;;;;;;3.47;2.93;;;4.60;99.90;;;;;;5031151;28;20543;-78
2024/01/28 05:57:10;;;;;;;2.87;2.77;;;4.60;99.90;;;;;;5030320;28;20584;-80
2024/01/28 05:59:39;;;;;;;3.37;3.07;;;4.50;99.90;;;;;;5037171;28;20565;-80
2024/01/28 06:02:07;;;;;;;3.00;2.70;;;4.60;99.90;;;;;;5032655;28;20488;-79
2024/01/28 06:04:35;;;;;;;2.73;2.63;;;4.60;99.90;;;;;;5033999;28;20459;-82
2024/01/28 06:07:03;;;;;;;3.00;2.80;;;4.60;99.90;;;;;;5032052;28;20531;-77
2024/01/28 06:09:33;;;;;;;2.90;2.70;;;4.60;99.90;;;;;;5036095;28;20478;-77
2024/01/28 06:12:01;;;;;;;2.97;2.77;;;4.50;99.90;;;;;;5035905;28;21076;-80
2024/01/28 06:14:29;;;;;;;3.00;2.80;;;4.50;99.90;;;;;;5037198;28;20456;-80
2024/01/28 06:16:58;;;;;;;3.57;2.80;;;4.40;99.90;;;;;;5035695;28;20488;-78
2024/01/28 06:19:26;;;;;;;3.27;3.03;;;4.40;99.90;;;;;;5036981;28;21314;-77
2024/01/28 06:21:55;;;;;;;3.80;2.73;;;4.40;99.90;;;;;;5040651;28;20992;-78
2024/01/28 06:24:23;;;;;;;2.90;2.70;;;4.40;99.90;;;;;;5036751;28;20463;-80
2024/01/28 06:26:53;;;;;;;2.70;2.50;;;4.30;99.90;;;;;;5031384;28;22146;-78
2024/01/28 06:29:23;;;;;;;4.93;4.37;;;4.20;99.90;;;;;;5032095;28;20455;-79
2024/01/28 06:31:51;;;;;;;2.90;2.70;;;4.20;99.90;;;;;;5037831;28;20511;-80
2024/01/28 06:34:20;;;;;;;3.28;2.97;;;4.20;99.90;;;;;;5041197;28;20813;-82
2024/01/28 06:36:48;;;;;;;3.60;2.50;;;4.20;99.90;;;;;;5041524;28;20206;-77
2024/01/28 06:39:17;;;;;;;2.83;2.60;;;4.20;99.90;;;;;;5040364;28;20455;-77
2024/01/28 06:41:45;;;;;;;3.13;2.92;;;4.10;99.90;;;;;;5041864;28;20460;-77
2024/01/28 06:44:15;;;;;;;3.20;2.40;;;4.10;99.90;;;;;;5034739;28;20260;-80
2024/01/28 06:46:44;;;;;;;4.90;3.63;;;4.10;99.90;;;;;;5036203;28;20462;-75
2024/01/28 06:49:12;;;;;;;3.03;2.57;;;4.00;99.90;;;;;;5034871;28;21336;-77
2024/01/28 06:51:46;;;;;;;3.10;2.90;;;4.10;99.90;;;;;;5035328;28;20892;-80
2024/01/28 06:54:14;;;;;;;2.60;2.50;;;4.20;99.90;;;;;;5031354;28;20201;-80
2024/01/28 06:56:43;;;;;;;2.85;2.65;;;4.20;99.90;;;;;;5037207;28;20487;-79
2024/01/28 06:59:11;;;;;;;2.70;2.50;;;4.20;99.90;;;;;;5037363;28;20217;-78
2024/01/28 07:01:41;;;;;;;3.60;2.60;;;4.30;99.90;;;;;;5038494;28;20221;-83
2024/01/28 07:04:09;;;;;;;2.63;2.43;;;4.40;99.90;;;;;;5039384;28;20521;-78
2024/01/28 07:06:37;;;;;;;2.50;2.30;;;4.30;99.90;;;;;;5041991;28;20448;-78
2024/01/28 07:09:08;;;;;;;2.85;2.50;;;4.30;99.90;;;;;;5041197;28;20461;-77
2024/01/28 07:11:36;;;;;;;3.27;3.00;;;4.20;99.90;;;;;;5042185;28;20669;-80
2024/01/28 07:14:04;;;;;;;4.87;4.20;;;4.10;99.90;;;;;;5039625;28;20457;-82
2024/01/28 07:16:32;;;;;;;4.83;4.50;;;4.10;99.90;;;;;;5036228;28;21110;-82
2024/01/28 07:19:02;;;;;;;4.32;4.03;;;4.10;99.90;;;;;;5036974;28;20459;-80
2024/01/28 07:21:31;;;;;;;5.10;4.30;;;4.10;99.90;;;;;;5037248;28;20253;-77
2024/01/28 07:23:59;;;;;;;4.53;4.13;;;4.10;99.90;;;;;;5037892;28;20455;-78
2024/01/28 07:26:27;;;;;;;5.50;4.03;;;4.10;99.90;;;;;;5035419;28;20205;-78
2024/01/28 07:28:55;;;;;;;5.00;4.47;;;4.10;99.90;;;;;;5037885;28;20463;-78
2024/01/28 07:31:24;;;;;;;5.35;4.95;;;4.10;99.90;;;;;;5038471;28;20562;-78
2024/01/28 07:33:52;;;;;;;5.70;4.40;;;4.00;99.90;;;;;;5037701;28;20284;-81
2024/01/28 07:36:22;;;;;;;4.40;4.10;;;4.00;99.90;;;;;;5037914;28;20944;-80
2024/01/28 07:38:50;;;;;;;3.70;3.40;;;4.00;99.90;;;;;;5038869;28;20235;-78
2024/01/28 07:41:18;;;;;;;4.70;4.30;;;3.90;99.90;;;;;;5037798;28;20491;-81
2024/01/28 07:43:46;;;;;;;6.20;5.18;;;3.90;99.90;;;;;;5039390;28;20281;-78
2024/01/28 07:46:15;;;;;;;4.80;4.40;;;3.90;99.90;;;;;;5036889;28;20222;-78
2024/01/28 07:48:43;;;;;;;5.80;5.20;;;3.90;99.90;;;;;;5038936;28;20213;-82
2024/01/28 07:51:12;;;;;;;5.07;4.67;;;3.90;99.90;;;;;;5033922;28;20471;-77
2024/01/28 07:53:42;;;;;;;4.43;4.13;;;3.90;99.90;;;;;;5034549;28;20466;-79
2024/01/28 07:56:14;;;;;;;5.28;4.88;;;3.90;99.90;;;;;;5037222;28;20201;-81
2024/01/28 07:58:42;;;;;;;5.17;4.63;;;4.00;99.90;;;;;;5035476;28;20206;-78
2024/01/28 08:01:10;;;;;;;5.77;4.73;;;4.30;99.90;;;;;;5037457;28;20490;-79
2024/01/28 08:03:39;;;;;;;4.70;4.27;;;4.40;99.90;;;;;;5035216;28;20463;-78
2024/01/28 08:06:09;;;;;;;4.40;4.10;;;4.60;99.90;;;;;;5038096;28;20502;-81
2024/01/28 08:08:37;;;;;;;4.57;4.17;;;4.80;99.90;;;;;;5035297;28;20459;-79
2024/01/28 08:11:07;;;;;;;5.40;4.10;;;4.90;99.90;;;;;;5037156;28;20484;-77
2024/01/28 08:13:35;;;;;;;7.50;5.60;;;5.20;99.90;;;;;;5036990;28;20472;-79
2024/01/28 08:16:04;;;;;;;6.50;5.93;;;5.30;99.90;;;;;;5036583;28;20444;-80
2024/01/28 08:18:33;;;;;;;6.90;6.40;;;5.50;99.90;;;;;;5034844;28;20482;-82
2024/01/28 08:21:03;;;;;;;8.37;7.57;;;5.70;99.90;;;;;;5039137;28;20507;-77
2024/01/28 08:23:31;;;;;;;9.13;8.27;;;5.80;99.90;;;;;;5041623;28;20448;-80
2024/01/28 08:25:59;;;;;;;7.57;6.83;;;6.10;99.90;;;;;;5042654;28;20645;-79
2024/01/28 08:28:29;;;;;;;8.50;7.60;;;6.20;99.90;;;;;;5035221;28;20467;-78
2024/01/28 08:30:57;;;;;;;8.43;7.63;;;6.40;99.90;;;;;;5029386;28;21008;-78
2024/01/28 08:33:25;;;;;;;7.30;6.60;;;6.40;99.90;;;;;;5037448;28;20838;-77
2024/01/28 08:35:54;;;;;;;2.80;2.67;;;6.50;99.90;;;;;;5043577;28;20444;-77
2024/01/28 08:38:22;;;;;;;3.47;3.17;;;6.70;99.90;;;;;;5039567;28;20464;-78
2024/01/28 08:40:50;;;;;;;2.63;2.40;;;7.00;99.90;;;;;;5039868;28;20503;-77
2024/01/28 08:43:18;;;;;;;3.13;1.90;;;7.20;99.90;;;;;;5040170;28;20456;-77
2024/01/28 08:45:48;;;;;;;2.50;2.30;;;7.40;99.90;;;;;;5040923;28;20461;-80
2024/01/28 08:48:16;;;;;;;2.30;2.10;;;7.50;99.90;;;;;;5036467;28;20455;-78
2024/01/28 08:50:45;;;;;;;2.43;2.30;;;7.80;99.90;;;;;;5041449;28;20483;-76
2024/01/28 08:53:14;;;;;;;2.20;2.10;;;8.00;99.90;;;;;;5042776;28;20510;-78
2024/01/28 08:55:42;;;;;;;2.50;2.30;;;8.10;99.90;;;;;;5039113;28;20546;-77
2024/01/28 08:58:10;;;;;;;1.97;1.73;;;8.30;99.90;;;;;;5039079;28;20449;-78
2024/01/28 09:00:39;;;;;;;2.07;1.87;;;8.40;99.90;;;;;;5042056;28;20482;-78
2024/01/28 09:03:08;;;;;;;3.87;2.10;;;8.50;99.90;;;;;;5033812;28;20448;-77
2024/01/28 09:05:37;;;;;;;1.93;1.83;;;8.70;99.90;;;;;;5037186;28;20482;-77
2024/01/28 09:08:05;;;;;;;2.20;2.00;;;8.70;99.90;;;;;;5037037;28;20472;-77
2024/01/28 09:10:33;;;;;;;3.00;1.90;;;8.90;99.90;;;;;;5040401;28;20631;-75
2024/01/28 09:13:01;;;;;;;3.10;1.87;;;8.90;99.90;;;;;;5039881;28;20933;-78
2024/01/28 09:15:30;;;;;;;1.83;1.73;;;8.90;99.90;;;;;;5039977;28;20456;-78
2024/01/28 09:17:58;;;;;;;1.93;1.80;;;8.80;99.90;;;;;;5035914;28;20472;-78
2024/01/28 09:20:27;;;;;;;4.60;2.10;;;8.80;99.90;;;;;;5037992;28;20480;-80
2024/01/28 09:22:55;;;;;;;3.50;2.07;;;8.80;99.90;;;;;;5036683;28;20448;-78
2024/01/28 09:25:25;;;;;;;2.00;1.90;;;8.90;99.90;;;;;;5036982;28;20460;-78
2024/01/28 09:27:55;;;;;;;2.43;2.00;;;8.80;99.90;;;;;;5037278;28;20447;-78
2024/01/28 09:30:23;;;;;;;2.53;2.33;;;8.80;99.90;;;;;;5037052;28;20553;-79
2024/01/28 09:32:51;;;;;;;2.37;2.17;;;8.80;99.90;;;;;;5043069;28;20480;-79
2024/01/28 09:35:20;;;;;;;1.70;1.60;;;8.90;99.90;;;;;;5039410;28;20521;-77
2024/01/28 09:37:50;;;;;;;2.13;1.80;;;9.00;99.90;;;;;;5038218;28;20440;-78
2024/01/28 09:40:18;;;;;;;1.93;1.80;;;9.10;99.90;;;;;;5034602;28;20475;-78
2024/01/28 09:42:58;;;;;;;1.73;1.63;;;9.30;99.90;;;;;;5036170;28;20453;-80
2024/01/28 09:45:27;;;;;;;1.63;1.53;;;9.50;99.90;;;;;;5038564;28;20444;-80
2024/01/28 09:47:56;;;;;;;2.87;1.70;;;9.80;99.90;;;;;;5037919;28;20460;-80
2024/01/28 09:50:25;;;;;;;1.60;1.50;;;10.30;99.90;;;;;;5039048;28;21670;-78
2024/01/28 09:52:54;;;;;;;1.83;1.73;;;10.90;99.90;;;;;;5040371;28;20487;-79
2024/01/28 09:55:22;;;;;;;1.50;1.40;;;11.60;99.90;;;;;;5042131;28;20452;-79
2024/01/28 09:57:50;;;;;;;1.70;1.60;;;12.20;99.90;;;;;;5034879;28;20455;-82
2024/01/28 10:00:21;;;;;;;1.50;1.50;;;12.60;99.90;;;;;;5035724;28;20479;-75
2024/01/28 10:02:52;;;;;;;1.60;1.50;;;12.90;99.90;;;;;;5036758;28;20859;-81
2024/01/28 10:05:20;;;;;;;1.87;1.60;;;13.60;99.90;;;;;;5037632;28;20452;-78
2024/01/28 10:07:50;;;;;;;1.83;1.60;;;14.20;99.90;;;;;;5035828;28;20456;-80
2024/01/28 10:10:19;;;;;;;1.73;1.63;;;14.80;99.90;;;;;;5035109;28;20484;-79
2024/01/28 10:12:49;;;;;;;1.90;1.80;;;15.30;99.90;;;;;;5033829;28;20846;-81
2024/01/28 10:15:20;;;;;;;1.50;1.40;;;15.70;99.90;;;;;;5037422;28;20591;-79
2024/01/28 10:17:50;;;;;;;1.70;1.60;;;16.30;99.90;;;;;;5035955;28;20466;-78
2024/01/28 10:20:19;;;;;;;1.63;1.53;;;16.90;99.90;;;;;;5037006;28;20484;-81
2024/01/28 10:22:47;;;;;;;2.00;1.80;;;17.30;99.90;;;;;;5035888;28;20460;-80
2024/01/28 10:25:17;;;;;;;1.40;1.30;;;17.60;99.90;;;;;;5036960;28;21079;-80
2024/01/28 10:27:48;;;;;;;1.40;1.23;;;18.20;99.90;;;;;;5031062;28;20469;-77
2024/01/28 10:30:18;;;;;;;1.30;1.20;;;19.00;99.90;;;;;;5036819;28;20479;-80
2024/01/28 10:32:47;;;;;;;3.83;1.17;;;19.40;99.90;;;;;;5033813;28;20472;-78
2024/01/28 10:35:16;;;;;;;1.37;1.27;;;20.10;99.90;;;;;;5034715;28;20453;-78
2024/01/28 10:37:51;;;;;;;1.50;1.40;;;20.50;99.90;;;;;;5029147;28;20456;-79
2024/01/28 10:40:20;;;;;;;1.70;1.60;;;21.10;99.90;;;;;;5034569;28;20474;-80
2024/01/28 10:42:52;;;;;;;1.20;1.20;;;22.20;99.90;;;;;;5036473;28;20573;-80
2024/01/28 10:45:23;;;;;;;1.70;1.60;;;22.60;99.90;;;;;;5032438;28;20667;-81
2024/01/28 10:47:53;;;;;;;1.80;1.57;;;23.20;99.90;;;;;;5036577;28;20513;-80
2024/01/28 10:50:23;;;;;;;1.70;1.60;;;23.50;99.90;;;;;;5037031;28;20468;-78
2024/01/28 10:52:52;;;;;;;1.83;1.73;;;24.20;99.90;;;;;;5036910;28;20481;-80
2024/01/28 10:55:22;;;;;;;2.10;1.90;;;24.70;99.90;;;;;;5037059;28;20475;-78
2024/01/28 10:57:54;;;;;;;1.63;1.53;;;24.90;99.90;;;;;;5031263;28;20452;-79
2024/01/28 11:00:24;;;;;;;3.13;2.93;;;24.70;99.90;;;;;;5035150;28;21094;-80
2024/01/28 11:02:56;;;;;;;2.43;2.30;;;25.40;99.90;;;;;;5033652;28;20541;-78
2024/01/28 11:05:25;;;;;;;2.07;1.60;;;25.20;99.90;;;;;;5034696;28;20522;-78
2024/01/28 11:07:59;;;;;;;1.70;1.60;;;25.60;99.90;;;;;;5033127;28;20542;-79
2024/01/28 11:10:28;;;;;;;1.60;1.50;;;25.10;99.90;;;;;;5034565;28;20470;-78
2024/01/28 11:12:58;;;;;;;1.50;1.40;;;23.80;99.90;;;;;;5035513;28;20491;-80
2024/01/28 11:15:27;;;;;;;2.33;1.73;;;21.70;99.90;;;;;;5047194;28;20463;-79
2024/01/28 11:17:56;;;;;;;1.90;1.60;;;20.00;99.90;;;;;;5035386;28;20467;-79
2024/01/28 11:20:27;;;;;;;1.70;1.60;;;19.10;99.90;;;;;;5035564;28;20845;-79
2024/01/28 11:23:00;;;;;;;2.17;1.70;;;18.70;99.20;;;;;;5035023;28;20549;-80
2024/01/28 11:25:29;;;;;;;1.60;1.50;;;18.60;97.60;;;;;;5036306;28;20456;-79
2024/01/28 11:28:01;;;;;;;1.50;1.40;;;18.80;99.70;;;;;;5038189;28;20472;-78
2024/01/28 11:30:30;;;;;;;2.07;1.93;;;19.40;99.90;;;;;;5034463;28;20530;-77
2024/01/28 11:33:09;;;;;;;1.60;1.50;;;20.90;99.90;;;;;;5033117;28;20463;-78
2024/01/28 11:35:39;;;;;;;2.63;1.70;;;22.70;99.90;;;;;;5032203;28;20464;-78
2024/01/28 11:38:10;;;;;;;1.40;1.30;;;23.10;99.90;;;;;;5037645;28;20498;-79
2024/01/28 11:40:40;;;;;;;1.60;1.50;;;22.60;99.90;;;;;;5038681;28;20480;-81
2024/01/28 11:43:10;;;;;;;1.50;1.40;;;20.80;99.90;;;;;;5038350;28;20450;-78
2024/01/28 11:45:38;;;;;;;1.83;1.70;;;19.30;99.90;;;;;;5037312;28;20957;-78
2024/01/28 11:48:08;;;;;;;1.37;1.27;;;18.00;91.80;;;;;;5035109;28;21238;-79
2024/01/28 11:50:38;;;;;;;1.60;1.50;;;17.30;83.10;;;;;;5036504;28;20531;-78
2024/01/28 11:53:09;;;;;;;1.47;1.37;;;16.50;69.00;;;;;;5040654;28;20468;-78
2024/01/28 11:55:38;;;;;;;1.60;1.50;;;16.10;63.20;;;;;;5034739;28;20467;-77
2024/01/28 11:58:06;;;;;;;1.60;1.50;;;15.80;59.70;;;;;;5036931;28;21086;-79
2024/01/28 12:00:36;;;;;;;1.50;1.40;;;15.60;59.50;;;;;;5036232;28;20484;-82
2024/01/28 12:03:06;;;;;;;1.50;1.40;;;15.60;58.00;;;;;;5032324;28;20992;-79
2024/01/28 12:05:34;;;;;;;1.77;1.40;;;15.50;56.80;;;;;;5037076;28;20456;-77
2024/01/28 12:08:03;;;;;;;1.40;1.30;;;15.40;55.10;;;;;;5036800;28;20462;-79
2024/01/28 12:10:36;;;;;;;1.67;1.30;;;15.40;54.90;;;;;;5035535;28;20473;-78
2024/01/28 12:13:05;;;;;;;1.40;1.40;;;15.40;55.00;;;;;;5036030;28;21273;-78
2024/01/28 12:15:34;;;;;;;1.70;1.60;;;15.40;55.30;;;;;;5037923;28;20538;-79
2024/01/28 12:18:04;;;;;;;1.53;1.43;;;15.50;56.80;;;;;;5038121;28;20464;-78
2024/01/28 12:20:32;;;;;;;1.70;1.60;;;15.50;56.60;;;;;;5031931;28;20483;-78
2024/01/28 12:23:01;;;;;;;1.60;1.50;;;15.60;59.10;;;;;;5039453;28;20547;-78
2024/01/28 12:25:29;;;;;;;1.60;1.50;;;15.60;60.40;;;;;;5036865;28;20546;-77
2024/01/28 12:27:57;;;;;;;1.70;1.60;;;15.60;60.20;;;;;;5034356;28;20548;-79
2024/01/28 12:30:25;;;;;;;1.40;1.30;;;15.40;55.90;;;;;;5036969;28;20472;-77
2024/01/28 12:32:55;;;;;;;1.50;1.40;;;15.30;54.50;;;;;;5037940;28;20608;-78
2024/01/28 12:35:25;;;;;;;2.47;1.30;;;15.30;55.80;;;;;;5037874;28;20455;-78
2024/01/28 12:37:53;;;;;;;2.10;1.40;;;15.20;53.70;;;;;;5036005;28;20472;-80
2024/01/28 12:40:21;;;;;;;1.57;1.47;;;15.10;53.90;;;;;;5037000;28;20461;-78
2024/01/28 12:42:49;;;;;;;1.60;1.50;;;15.10;53.60;;;;;;5038122;28;20448;-79
2024/01/28 12:45:18;;;;;;;1.60;1.50;;;15.00;51.70;;;;;;5034325;28;20552;-78
2024/01/28 12:47:46;;;;;;;1.50;1.40;;;14.70;47.60;;;;;;5032021;28;20466;-79
2024/01/28 12:50:14;;;;;;;1.80;1.70;;;14.90;50.30;;;;;;5035143;28;20476;-80
2024/01/28 12:52:44;;;;;;;1.63;1.53;;;15.10;52.20;;;;;;5037460;28;20486;-81
2024/01/28 12:55:12;;;;;;;1.53;1.43;;;15.00;51.00;;;;;;5034524;28;20465;-78
2024/01/28 12:57:42;;;;;;;1.40;1.30;;;15.00;53.50;;;;;;5032867;28;20459;-78
2024/01/28 13:00:14;;;;;;;2.20;1.50;;;15.30;56.40;;;;;;5032669;28;20981;-80
2024/01/28 13:02:43;;;;;;;1.50;1.37;;;15.40;57.50;;;;;;5029592;28;20916;-78